sensor_id;sensor_type;location;lat;lon;timestamp;P1;durP1;ratioP1;P2;durP2;ratioP2
14876;SDS011;69691;48.172;17.070;2023-06-14T00:00:20;8.40;;;4.00;;
14876;SDS011;69691;48.172;17.070;2023-06-14T00:02:47;7.97;;;4.40;;
14876;SDS011;69691;48.172;17.070;2023-06-14T00:05:13;23.48;;;5.18;;
14876;SDS011;69691;48.172;17.070;2023-06-14T00:07:39;4.90;;;4.40;;
14876;SDS011;69691;48.172;17.070;2023-06-14T00:10:07;5.70;;;4.05;;
14876;SDS011;69691;48.172;17.070;2023-06-14T00:12:35;5.55;;;4.30;;
14876;SDS011;69691;48.172;17.070;2023-06-14T00:15:01;5.15;;;4.47;;
14876;SDS011;69691;48.172;17.070;2023-06-14T00:17:28;9.57;;;4.35;;
14876;SDS011;69691;48.172;17.070;2023-06-14T00:19:57;9.00;;;4.05;;
14876;SDS011;69691;48.172;17.070;2023-06-14T00:22:24;6.32;;;4.45;;
14876;SDS011;69691;48.172;17.070;2023-06-14T00:24:51;9.15;;;4.00;;
14876;SDS011;69691;48.172;17.070;2023-06-14T00:27:17;4.57;;;4.00;;
14876;SDS011;69691;48.172;17.070;2023-06-14T00:29:43;4.57;;;3.88;;
14876;SDS011;69691;48.172;17.070;2023-06-14T00:32:09;8.27;;;3.92;;
14876;SDS011;69691;48.172;17.070;2023-06-14T00:34:34;5.25;;;4.43;;
14876;SDS011;69691;48.172;17.070;2023-06-14T00:37:00;10.02;;;4.00;;
14876;SDS011;69691;48.172;17.070;2023-06-14T00:39:27;4.20;;;3.80;;
14876;SDS011;69691;48.172;17.070;2023-06-14T00:41:54;7.90;;;4.28;;
14876;SDS011;69691;48.172;17.070;2023-06-14T00:44:25;4.57;;;4.07;;
14876;SDS011;69691;48.172;17.070;2023-06-14T00:46:50;4.30;;;3.88;;
14876;SDS011;69691;48.172;17.070;2023-06-14T00:49:16;10.10;;;5.07;;
14876;SDS011;69691;48.172;17.070;2023-06-14T00:51:44;8.25;;;3.85;;
14876;SDS011;69691;48.172;17.070;2023-06-14T00:54:11;4.43;;;3.95;;
14876;SDS011;69691;48.172;17.070;2023-06-14T00:56:37;7.65;;;4.78;;
14876;SDS011;69691;48.172;17.070;2023-06-14T00:59:03;5.65;;;4.00;;
14876;SDS011;69691;48.172;17.070;2023-06-14T01:01:30;10.77;;;4.20;;
14876;SDS011;69691;48.172;17.070;2023-06-14T01:03:59;4.68;;;4.20;;
14876;SDS011;69691;48.172;17.070;2023-06-14T01:09:42;4.75;;;4.22;;
14876;SDS011;69691;48.172;17.070;2023-06-14T01:15:24;4.70;;;4.15;;
14876;SDS011;69691;48.172;17.070;2023-06-14T01:17:51;5.35;;;3.97;;
14876;SDS011;69691;48.172;17.070;2023-06-14T01:20:19;7.20;;;4.07;;
14876;SDS011;69691;48.172;17.070;2023-06-14T01:22:53;5.80;;;3.65;;
14876;SDS011;69691;48.172;17.070;2023-06-14T01:30:25;8.85;;;4.45;;
14876;SDS011;69691;48.172;17.070;2023-06-14T01:32:51;9.88;;;4.32;;
14876;SDS011;69691;48.172;17.070;2023-06-14T01:35:19;7.40;;;4.53;;
14876;SDS011;69691;48.172;17.070;2023-06-14T01:37:47;7.28;;;4.40;;
14876;SDS011;69691;48.172;17.070;2023-06-14T01:40:15;10.35;;;4.15;;
14876;SDS011;69691;48.172;17.070;2023-06-14T01:42:44;11.57;;;4.55;;
14876;SDS011;69691;48.172;17.070;2023-06-14T01:45:13;7.70;;;4.70;;
14876;SDS011;69691;48.172;17.070;2023-06-14T01:47:40;6.68;;;4.80;;
14876;SDS011;69691;48.172;17.070;2023-06-14T01:50:07;7.15;;;4.60;;
14876;SDS011;69691;48.172;17.070;2023-06-14T01:52:36;7.35;;;4.72;;
14876;SDS011;69691;48.172;17.070;2023-06-14T01:55:04;6.90;;;4.55;;
14876;SDS011;69691;48.172;17.070;2023-06-14T01:57:31;8.27;;;5.35;;
14876;SDS011;69691;48.172;17.070;2023-06-14T01:59:58;5.93;;;4.50;;
14876;SDS011;69691;48.172;17.070;2023-06-14T02:02:24;6.40;;;5.07;;
14876;SDS011;69691;48.172;17.070;2023-06-14T02:04:50;4.63;;;4.22;;
14876;SDS011;69691;48.172;17.070;2023-06-14T02:07:16;7.80;;;4.80;;
14876;SDS011;69691;48.172;17.070;2023-06-14T02:09:42;8.40;;;4.97;;
14876;SDS011;69691;48.172;17.070;2023-06-14T02:12:08;10.18;;;4.68;;
14876;SDS011;69691;48.172;17.070;2023-06-14T02:14:34;6.50;;;4.88;;
14876;SDS011;69691;48.172;17.070;2023-06-14T02:17:00;6.53;;;4.82;;
14876;SDS011;69691;48.172;17.070;2023-06-14T02:19:26;12.43;;;4.88;;
14876;SDS011;69691;48.172;17.070;2023-06-14T02:21:52;8.35;;;5.20;;
14876;SDS011;69691;48.172;17.070;2023-06-14T02:24:18;7.47;;;4.85;;
14876;SDS011;69691;48.172;17.070;2023-06-14T02:26:44;6.32;;;4.55;;
14876;SDS011;69691;48.172;17.070;2023-06-14T02:29:13;6.68;;;4.97;;
14876;SDS011;69691;48.172;17.070;2023-06-14T02:31:41;7.03;;;4.93;;
14876;SDS011;69691;48.172;17.070;2023-06-14T02:34:07;9.55;;;5.30;;
14876;SDS011;69691;48.172;17.070;2023-06-14T02:36:35;14.60;;;5.43;;
14876;SDS011;69691;48.172;17.070;2023-06-14T02:39:09;361.52;;;107.72;;
14876;SDS011;69691;48.172;17.070;2023-06-14T02:41:35;352.73;;;208.90;;
14876;SDS011;69691;48.172;17.070;2023-06-14T02:44:01;1999.90;;;999.90;;
14876;SDS011;69691;48.172;17.070;2023-06-14T02:46:28;1999.90;;;999.90;;
14876;SDS011;69691;48.172;17.070;2023-06-14T02:48:53;1999.90;;;999.90;;
14876;SDS011;69691;48.172;17.070;2023-06-14T02:51:19;1999.90;;;999.90;;
14876;SDS011;69691;48.172;17.070;2023-06-14T02:53:45;1999.90;;;999.90;;
14876;SDS011;69691;48.172;17.070;2023-06-14T02:56:11;1999.90;;;999.90;;
14876;SDS011;69691;48.172;17.070;2023-06-14T02:58:37;1999.90;;;999.90;;
14876;SDS011;69691;48.172;17.070;2023-06-14T03:01:04;1999.90;;;999.90;;
14876;SDS011;69691;48.172;17.070;2023-06-14T03:03:33;1999.90;;;999.90;;
14876;SDS011;69691;48.172;17.070;2023-06-14T03:05:59;1999.90;;;999.90;;
14876;SDS011;69691;48.172;17.070;2023-06-14T03:08:30;1999.90;;;999.90;;
14876;SDS011;69691;48.172;17.070;2023-06-14T03:11:04;1999.90;;;999.90;;
14876;SDS011;69691;48.172;17.070;2023-06-14T03:13:34;1999.90;;;999.90;;
14876;SDS011;69691;48.172;17.070;2023-06-14T03:16:02;1999.90;;;999.90;;
14876;SDS011;69691;48.172;17.070;2023-06-14T03:18:29;46.65;;;42.50;;
14876;SDS011;69691;48.172;17.070;2023-06-14T03:20:56;34.30;;;32.10;;
14876;SDS011;69691;48.172;17.070;2023-06-14T03:23:24;33.00;;;30.42;;
14876;SDS011;69691;48.172;17.070;2023-06-14T03:25:50;29.35;;;27.45;;
14876;SDS011;69691;48.172;17.070;2023-06-14T03:28:16;23.60;;;21.77;;
14876;SDS011;69691;48.172;17.070;2023-06-14T03:30:42;25.15;;;22.88;;
14876;SDS011;69691;48.172;17.070;2023-06-14T03:33:08;22.45;;;20.60;;
14876;SDS011;69691;48.172;17.070;2023-06-14T03:35:37;19.38;;;17.88;;
14876;SDS011;69691;48.172;17.070;2023-06-14T03:38:03;23.02;;;20.30;;
14876;SDS011;69691;48.172;17.070;2023-06-14T03:40:30;17.15;;;15.85;;
14876;SDS011;69691;48.172;17.070;2023-06-14T03:43:00;1999.90;;;999.90;;
14876;SDS011;69691;48.172;17.070;2023-06-14T03:45:27;4.60;;;3.70;;
14876;SDS011;69691;48.172;17.070;2023-06-14T03:47:53;8.18;;;3.83;;
14876;SDS011;69691;48.172;17.070;2023-06-14T03:50:20;8.45;;;3.95;;
14876;SDS011;69691;48.172;17.070;2023-06-14T03:52:47;13.48;;;4.63;;
14876;SDS011;69691;48.172;17.070;2023-06-14T03:55:14;8.27;;;4.10;;
14876;SDS011;69691;48.172;17.070;2023-06-14T03:57:41;10.13;;;4.10;;
14876;SDS011;69691;48.172;17.070;2023-06-14T04:00:11;5.07;;;3.85;;
14876;SDS011;69691;48.172;17.070;2023-06-14T04:02:40;6.10;;;3.65;;
14876;SDS011;69691;48.172;17.070;2023-06-14T04:05:07;19.83;;;4.82;;
14876;SDS011;69691;48.172;17.070;2023-06-14T04:07:36;11.88;;;4.07;;
14876;SDS011;69691;48.172;17.070;2023-06-14T04:10:08;11.85;;;4.70;;
14876;SDS011;69691;48.172;17.070;2023-06-14T04:12:34;16.10;;;5.53;;
14876;SDS011;69691;48.172;17.070;2023-06-14T04:15:00;6.40;;;4.55;;
14876;SDS011;69691;48.172;17.070;2023-06-14T04:17:28;8.35;;;4.50;;
14876;SDS011;69691;48.172;17.070;2023-06-14T04:19:54;11.25;;;4.75;;
14876;SDS011;69691;48.172;17.070;2023-06-14T04:22:20;11.48;;;4.07;;
14876;SDS011;69691;48.172;17.070;2023-06-14T04:24:46;15.40;;;5.95;;
14876;SDS011;69691;48.172;17.070;2023-06-14T04:27:12;12.20;;;3.83;;
14876;SDS011;69691;48.172;17.070;2023-06-14T04:29:40;7.80;;;4.25;;
14876;SDS011;69691;48.172;17.070;2023-06-14T04:32:10;5.55;;;3.95;;
14876;SDS011;69691;48.172;17.070;2023-06-14T04:34:38;7.22;;;5.47;;
14876;SDS011;69691;48.172;17.070;2023-06-14T04:37:05;7.82;;;5.00;;
14876;SDS011;69691;48.172;17.070;2023-06-14T04:39:38;7.32;;;5.45;;
14876;SDS011;69691;48.172;17.070;2023-06-14T04:42:04;13.88;;;5.78;;
14876;SDS011;69691;48.172;17.070;2023-06-14T04:44:33;10.40;;;5.80;;
14876;SDS011;69691;48.172;17.070;2023-06-14T04:47:02;13.52;;;6.35;;
14876;SDS011;69691;48.172;17.070;2023-06-14T04:49:28;10.50;;;6.07;;
14876;SDS011;69691;48.172;17.070;2023-06-14T04:51:56;7.10;;;5.38;;
14876;SDS011;69691;48.172;17.070;2023-06-14T04:54:31;7.55;;;5.57;;
14876;SDS011;69691;48.172;17.070;2023-06-14T04:56:59;8.20;;;5.90;;
14876;SDS011;69691;48.172;17.070;2023-06-14T04:59:26;9.05;;;5.45;;
14876;SDS011;69691;48.172;17.070;2023-06-14T05:01:52;10.43;;;6.10;;
14876;SDS011;69691;48.172;17.070;2023-06-14T05:04:18;6.57;;;5.82;;
14876;SDS011;69691;48.172;17.070;2023-06-14T05:06:46;10.55;;;5.57;;
14876;SDS011;69691;48.172;17.070;2023-06-14T05:09:15;15.82;;;5.72;;
14876;SDS011;69691;48.172;17.070;2023-06-14T05:11:43;6.78;;;5.93;;
14876;SDS011;69691;48.172;17.070;2023-06-14T05:14:10;7.15;;;5.78;;
14876;SDS011;69691;48.172;17.070;2023-06-14T05:16:36;11.77;;;8.88;;
14876;SDS011;69691;48.172;17.070;2023-06-14T05:19:03;7.47;;;5.70;;
14876;SDS011;69691;48.172;17.070;2023-06-14T05:21:32;6.70;;;5.25;;
14876;SDS011;69691;48.172;17.070;2023-06-14T05:23:59;10.30;;;5.57;;
14876;SDS011;69691;48.172;17.070;2023-06-14T05:26:26;6.43;;;5.75;;
14876;SDS011;69691;48.172;17.070;2023-06-14T05:28:55;10.60;;;5.55;;
14876;SDS011;69691;48.172;17.070;2023-06-14T05:31:23;7.40;;;5.72;;
14876;SDS011;69691;48.172;17.070;2023-06-14T05:33:51;7.55;;;5.50;;
14876;SDS011;69691;48.172;17.070;2023-06-14T05:36:18;6.13;;;5.53;;
14876;SDS011;69691;48.172;17.070;2023-06-14T05:38:46;12.55;;;5.55;;
14876;SDS011;69691;48.172;17.070;2023-06-14T05:41:12;9.70;;;5.65;;
14876;SDS011;69691;48.172;17.070;2023-06-14T05:43:38;7.85;;;5.68;;
14876;SDS011;69691;48.172;17.070;2023-06-14T05:46:05;7.47;;;5.78;;
14876;SDS011;69691;48.172;17.070;2023-06-14T05:48:31;9.15;;;5.55;;
14876;SDS011;69691;48.172;17.070;2023-06-14T05:50:57;8.98;;;6.13;;
14876;SDS011;69691;48.172;17.070;2023-06-14T05:53:23;11.50;;;6.40;;
14876;SDS011;69691;48.172;17.070;2023-06-14T05:55:49;9.10;;;5.90;;
14876;SDS011;69691;48.172;17.070;2023-06-14T05:58:20;12.32;;;6.53;;
14876;SDS011;69691;48.172;17.070;2023-06-14T06:00:47;12.32;;;6.35;;
14876;SDS011;69691;48.172;17.070;2023-06-14T06:03:13;11.70;;;6.30;;
14876;SDS011;69691;48.172;17.070;2023-06-14T06:05:39;12.02;;;6.15;;
14876;SDS011;69691;48.172;17.070;2023-06-14T06:08:05;10.80;;;5.82;;
14876;SDS011;69691;48.172;17.070;2023-06-14T06:10:31;11.07;;;6.93;;
14876;SDS011;69691;48.172;17.070;2023-06-14T06:12:57;13.75;;;6.38;;
14876;SDS011;69691;48.172;17.070;2023-06-14T06:15:23;8.15;;;6.20;;
14876;SDS011;69691;48.172;17.070;2023-06-14T06:17:48;10.05;;;5.90;;
14876;SDS011;69691;48.172;17.070;2023-06-14T06:20:16;9.27;;;6.10;;
14876;SDS011;69691;48.172;17.070;2023-06-14T06:22:42;9.70;;;6.32;;
14876;SDS011;69691;48.172;17.070;2023-06-14T06:25:08;7.65;;;5.90;;
14876;SDS011;69691;48.172;17.070;2023-06-14T06:27:35;5.82;;;5.18;;
14876;SDS011;69691;48.172;17.070;2023-06-14T06:30:03;14.45;;;5.95;;
14876;SDS011;69691;48.172;17.070;2023-06-14T06:32:30;8.40;;;5.10;;
14876;SDS011;69691;48.172;17.070;2023-06-14T06:34:56;8.70;;;5.70;;
14876;SDS011;69691;48.172;17.070;2023-06-14T06:37:22;6.47;;;5.30;;
14876;SDS011;69691;48.172;17.070;2023-06-14T06:39:48;8.13;;;5.60;;
14876;SDS011;69691;48.172;17.070;2023-06-14T06:42:18;7.22;;;5.80;;
14876;SDS011;69691;48.172;17.070;2023-06-14T06:44:49;8.45;;;5.35;;
14876;SDS011;69691;48.172;17.070;2023-06-14T06:47:15;9.18;;;5.65;;
14876;SDS011;69691;48.172;17.070;2023-06-14T06:49:40;7.72;;;5.15;;
14876;SDS011;69691;48.172;17.070;2023-06-14T06:52:06;7.15;;;5.38;;
14876;SDS011;69691;48.172;17.070;2023-06-14T06:54:33;6.40;;;4.97;;
14876;SDS011;69691;48.172;17.070;2023-06-14T06:57:00;12.50;;;5.10;;
14876;SDS011;69691;48.172;17.070;2023-06-14T06:59:26;9.20;;;4.90;;
14876;SDS011;69691;48.172;17.070;2023-06-14T07:01:52;5.80;;;5.22;;
14876;SDS011;69691;48.172;17.070;2023-06-14T07:04:18;5.85;;;5.20;;
14876;SDS011;69691;48.172;17.070;2023-06-14T07:06:45;21.55;;;5.70;;
14876;SDS011;69691;48.172;17.070;2023-06-14T07:09:12;6.68;;;6.00;;
14876;SDS011;69691;48.172;17.070;2023-06-14T07:11:40;8.30;;;5.78;;
14876;SDS011;69691;48.172;17.070;2023-06-14T07:14:09;9.93;;;6.93;;
14876;SDS011;69691;48.172;17.070;2023-06-14T07:16:35;8.23;;;5.25;;
14876;SDS011;69691;48.172;17.070;2023-06-14T07:19:01;8.10;;;5.60;;
14876;SDS011;69691;48.172;17.070;2023-06-14T07:21:28;6.82;;;6.15;;
14876;SDS011;69691;48.172;17.070;2023-06-14T07:23:54;9.68;;;6.03;;
14876;SDS011;69691;48.172;17.070;2023-06-14T07:26:21;6.32;;;5.72;;
14876;SDS011;69691;48.172;17.070;2023-06-14T07:28:48;9.18;;;5.80;;
14876;SDS011;69691;48.172;17.070;2023-06-14T07:31:17;10.20;;;5.82;;
14876;SDS011;69691;48.172;17.070;2023-06-14T07:33:44;5.82;;;5.28;;
14876;SDS011;69691;48.172;17.070;2023-06-14T07:36:10;10.05;;;5.60;;
14876;SDS011;69691;48.172;17.070;2023-06-14T07:38:36;16.73;;;5.40;;
14876;SDS011;69691;48.172;17.070;2023-06-14T07:41:02;6.15;;;5.28;;
14876;SDS011;69691;48.172;17.070;2023-06-14T07:43:28;6.63;;;4.75;;
14876;SDS011;69691;48.172;17.070;2023-06-14T07:45:54;9.23;;;5.13;;
14876;SDS011;69691;48.172;17.070;2023-06-14T07:48:20;6.22;;;4.53;;
14876;SDS011;69691;48.172;17.070;2023-06-14T07:50:46;12.20;;;5.68;;
14876;SDS011;69691;48.172;17.070;2023-06-14T07:53:12;14.45;;;4.72;;
14876;SDS011;69691;48.172;17.070;2023-06-14T07:55:38;7.05;;;4.80;;
14876;SDS011;69691;48.172;17.070;2023-06-14T07:58:05;8.60;;;4.35;;
14876;SDS011;69691;48.172;17.070;2023-06-14T08:00:32;7.97;;;3.85;;
14876;SDS011;69691;48.172;17.070;2023-06-14T08:02:57;6.70;;;4.30;;
14876;SDS011;69691;48.172;17.070;2023-06-14T08:05:24;7.15;;;4.10;;
14876;SDS011;69691;48.172;17.070;2023-06-14T08:07:51;5.55;;;4.00;;
14876;SDS011;69691;48.172;17.070;2023-06-14T08:10:17;7.07;;;4.68;;
14876;SDS011;69691;48.172;17.070;2023-06-14T08:12:44;6.95;;;3.88;;
14876;SDS011;69691;48.172;17.070;2023-06-14T08:15:10;14.30;;;4.00;;
14876;SDS011;69691;48.172;17.070;2023-06-14T08:17:36;4.40;;;3.50;;
14876;SDS011;69691;48.172;17.070;2023-06-14T08:20:02;183.15;;;27.73;;
14876;SDS011;69691;48.172;17.070;2023-06-14T08:22:30;4.18;;;3.50;;
14876;SDS011;69691;48.172;17.070;2023-06-14T08:25:02;4.05;;;3.58;;
14876;SDS011;69691;48.172;17.070;2023-06-14T08:27:29;4.32;;;3.70;;
14876;SDS011;69691;48.172;17.070;2023-06-14T08:29:56;4.82;;;4.10;;
14876;SDS011;69691;48.172;17.070;2023-06-14T08:32:22;11.80;;;5.10;;
14876;SDS011;69691;48.172;17.070;2023-06-14T08:34:48;6.05;;;5.45;;
14876;SDS011;69691;48.172;17.070;2023-06-14T08:37:14;10.90;;;5.03;;
14876;SDS011;69691;48.172;17.070;2023-06-14T08:39:40;9.23;;;4.63;;
14876;SDS011;69691;48.172;17.070;2023-06-14T08:42:07;11.52;;;4.15;;
14876;SDS011;69691;48.172;17.070;2023-06-14T08:44:34;7.22;;;5.15;;
14876;SDS011;69691;48.172;17.070;2023-06-14T08:47:00;10.13;;;5.00;;
14876;SDS011;69691;48.172;17.070;2023-06-14T08:49:28;444.42;;;42.25;;
14876;SDS011;69691;48.172;17.070;2023-06-14T08:51:57;7.53;;;5.32;;
14876;SDS011;69691;48.172;17.070;2023-06-14T08:54:25;9.68;;;5.72;;
14876;SDS011;69691;48.172;17.070;2023-06-14T08:57:01;17.05;;;6.63;;
14876;SDS011;69691;48.172;17.070;2023-06-14T08:59:29;11.73;;;5.07;;
14876;SDS011;69691;48.172;17.070;2023-06-14T09:01:59;8.55;;;5.22;;
14876;SDS011;69691;48.172;17.070;2023-06-14T09:04:25;14.00;;;5.90;;
14876;SDS011;69691;48.172;17.070;2023-06-14T09:07:05;13.27;;;5.68;;
14876;SDS011;69691;48.172;17.070;2023-06-14T09:09:32;10.20;;;4.88;;
14876;SDS011;69691;48.172;17.070;2023-06-14T09:12:00;7.00;;;5.43;;
14876;SDS011;69691;48.172;17.070;2023-06-14T09:14:26;6.43;;;5.03;;
14876;SDS011;69691;48.172;17.070;2023-06-14T09:16:52;9.35;;;4.43;;
14876;SDS011;69691;48.172;17.070;2023-06-14T09:19:25;6.75;;;4.53;;
14876;SDS011;69691;48.172;17.070;2023-06-14T09:21:53;8.88;;;4.90;;
14876;SDS011;69691;48.172;17.070;2023-06-14T09:24:20;8.93;;;4.68;;
14876;SDS011;69691;48.172;17.070;2023-06-14T09:26:50;9.68;;;4.50;;
14876;SDS011;69691;48.172;17.070;2023-06-14T09:29:17;6.93;;;5.25;;
14876;SDS011;69691;48.172;17.070;2023-06-14T09:31:45;5.80;;;5.20;;
14876;SDS011;69691;48.172;17.070;2023-06-14T09:34:12;7.05;;;5.35;;
14876;SDS011;69691;48.172;17.070;2023-06-14T09:36:39;7.63;;;4.80;;
14876;SDS011;69691;48.172;17.070;2023-06-14T09:39:07;9.02;;;4.35;;
14876;SDS011;69691;48.172;17.070;2023-06-14T09:41:38;9.25;;;5.70;;
14876;SDS011;69691;48.172;17.070;2023-06-14T09:44:06;8.95;;;4.80;;
14876;SDS011;69691;48.172;17.070;2023-06-14T09:46:34;8.00;;;4.82;;
14876;SDS011;69691;48.172;17.070;2023-06-14T09:49:01;7.22;;;4.60;;
14876;SDS011;69691;48.172;17.070;2023-06-14T09:51:28;5.18;;;4.68;;
14876;SDS011;69691;48.172;17.070;2023-06-14T09:53:59;10.75;;;4.35;;
14876;SDS011;69691;48.172;17.070;2023-06-14T09:56:27;8.85;;;4.25;;
14876;SDS011;69691;48.172;17.070;2023-06-14T09:58:57;9.77;;;5.13;;
14876;SDS011;69691;48.172;17.070;2023-06-14T10:01:25;10.88;;;4.20;;
14876;SDS011;69691;48.172;17.070;2023-06-14T10:03:57;4.93;;;4.53;;
14876;SDS011;69691;48.172;17.070;2023-06-14T10:06:29;8.27;;;4.88;;
14876;SDS011;69691;48.172;17.070;2023-06-14T10:08:57;8.52;;;4.85;;
14876;SDS011;69691;48.172;17.070;2023-06-14T10:11:28;8.40;;;4.90;;
14876;SDS011;69691;48.172;17.070;2023-06-14T10:13:57;6.57;;;5.10;;
14876;SDS011;69691;48.172;17.070;2023-06-14T10:16:28;10.35;;;4.85;;
14876;SDS011;69691;48.172;17.070;2023-06-14T10:19:07;7.43;;;5.40;;
14876;SDS011;69691;48.172;17.070;2023-06-14T10:22:09;11.25;;;4.80;;
14876;SDS011;69691;48.172;17.070;2023-06-14T10:24:42;5.13;;;4.30;;
14876;SDS011;69691;48.172;17.070;2023-06-14T10:27:09;8.35;;;4.50;;
14876;SDS011;69691;48.172;17.070;2023-06-14T10:32:22;11.45;;;5.55;;
14876;SDS011;69691;48.172;17.070;2023-06-14T10:34:56;7.10;;;5.05;;
14876;SDS011;69691;48.172;17.070;2023-06-14T10:37:27;7.75;;;4.82;;
14876;SDS011;69691;48.172;17.070;2023-06-14T10:39:56;10.52;;;5.20;;
14876;SDS011;69691;48.172;17.070;2023-06-14T10:42:31;9.00;;;5.00;;
14876;SDS011;69691;48.172;17.070;2023-06-14T10:44:58;11.77;;;5.63;;
14876;SDS011;69691;48.172;17.070;2023-06-14T10:50:04;5.60;;;4.70;;
14876;SDS011;69691;48.172;17.070;2023-06-14T10:52:33;6.80;;;5.80;;
14876;SDS011;69691;48.172;17.070;2023-06-14T10:55:16;10.85;;;5.95;;
14876;SDS011;69691;48.172;17.070;2023-06-14T11:00:12;6.95;;;5.20;;
14876;SDS011;69691;48.172;17.070;2023-06-14T11:02:46;5.63;;;5.13;;
14876;SDS011;69691;48.172;17.070;2023-06-14T11:05:50;8.48;;;5.72;;
14876;SDS011;69691;48.172;17.070;2023-06-14T11:08:27;9.10;;;5.18;;
14876;SDS011;69691;48.172;17.070;2023-06-14T11:11:10;5.95;;;5.20;;
14876;SDS011;69691;48.172;17.070;2023-06-14T11:13:38;7.07;;;5.07;;
14876;SDS011;69691;48.172;17.070;2023-06-14T11:16:12;7.72;;;4.63;;
14876;SDS011;69691;48.172;17.070;2023-06-14T11:18:41;10.70;;;5.10;;
14876;SDS011;69691;48.172;17.070;2023-06-14T11:21:09;8.52;;;5.65;;
14876;SDS011;69691;48.172;17.070;2023-06-14T11:23:35;9.52;;;4.72;;
14876;SDS011;69691;48.172;17.070;2023-06-14T11:26:01;6.93;;;4.70;;
14876;SDS011;69691;48.172;17.070;2023-06-14T11:28:39;13.65;;;4.25;;
14876;SDS011;69691;48.172;17.070;2023-06-14T11:31:06;7.03;;;4.28;;
14876;SDS011;69691;48.172;17.070;2023-06-14T11:33:33;8.48;;;6.63;;
14876;SDS011;69691;48.172;17.070;2023-06-14T11:36:02;7.20;;;4.60;;
14876;SDS011;69691;48.172;17.070;2023-06-14T11:38:30;5.20;;;4.70;;
14876;SDS011;69691;48.172;17.070;2023-06-14T11:41:00;7.70;;;4.78;;
14876;SDS011;69691;48.172;17.070;2023-06-14T11:43:26;8.80;;;4.65;;
14876;SDS011;69691;48.172;17.070;2023-06-14T11:45:52;14.35;;;5.32;;
14876;SDS011;69691;48.172;17.070;2023-06-14T11:48:18;8.05;;;5.07;;
14876;SDS011;69691;48.172;17.070;2023-06-14T11:50:49;6.72;;;4.40;;
14876;SDS011;69691;48.172;17.070;2023-06-14T11:53:16;8.88;;;4.68;;
14876;SDS011;69691;48.172;17.070;2023-06-14T11:55:43;5.18;;;4.78;;
14876;SDS011;69691;48.172;17.070;2023-06-14T11:58:11;8.98;;;4.72;;
14876;SDS011;69691;48.172;17.070;2023-06-14T12:00:37;5.20;;;4.70;;
14876;SDS011;69691;48.172;17.070;2023-06-14T12:03:03;8.20;;;4.57;;
14876;SDS011;69691;48.172;17.070;2023-06-14T12:05:29;9.15;;;4.85;;
14876;SDS011;69691;48.172;17.070;2023-06-14T12:07:59;5.15;;;4.65;;
14876;SDS011;69691;48.172;17.070;2023-06-14T12:10:26;5.15;;;3.83;;
14876;SDS011;69691;48.172;17.070;2023-06-14T12:12:56;8.65;;;4.35;;
14876;SDS011;69691;48.172;17.070;2023-06-14T12:15:24;6.57;;;4.75;;
14876;SDS011;69691;48.172;17.070;2023-06-14T12:17:54;8.85;;;4.22;;
14876;SDS011;69691;48.172;17.070;2023-06-14T12:20:20;6.63;;;4.47;;
14876;SDS011;69691;48.172;17.070;2023-06-14T12:22:53;7.07;;;4.45;;
14876;SDS011;69691;48.172;17.070;2023-06-14T12:27:59;7.43;;;4.80;;
14876;SDS011;69691;48.172;17.070;2023-06-14T12:30:31;11.65;;;5.50;;
14876;SDS011;69691;48.172;17.070;2023-06-14T12:32:57;7.30;;;5.10;;
14876;SDS011;69691;48.172;17.070;2023-06-14T12:35:23;10.63;;;5.00;;
14876;SDS011;69691;48.172;17.070;2023-06-14T12:37:49;6.43;;;5.18;;
14876;SDS011;69691;48.172;17.070;2023-06-14T12:40:14;5.97;;;5.20;;
14876;SDS011;69691;48.172;17.070;2023-06-14T12:42:41;9.07;;;5.88;;
14876;SDS011;69691;48.172;17.070;2023-06-14T12:45:07;7.55;;;4.28;;
14876;SDS011;69691;48.172;17.070;2023-06-14T12:47:34;6.32;;;5.03;;
14876;SDS011;69691;48.172;17.070;2023-06-14T12:50:01;9.25;;;4.82;;
14876;SDS011;69691;48.172;17.070;2023-06-14T12:52:26;5.93;;;4.57;;
14876;SDS011;69691;48.172;17.070;2023-06-14T12:54:52;6.65;;;4.60;;
14876;SDS011;69691;48.172;17.070;2023-06-14T12:57:18;5.35;;;4.50;;
14876;SDS011;69691;48.172;17.070;2023-06-14T12:59:44;6.60;;;5.15;;
14876;SDS011;69691;48.172;17.070;2023-06-14T13:02:12;7.32;;;4.90;;
14876;SDS011;69691;48.172;17.070;2023-06-14T13:04:42;6.63;;;4.70;;
14876;SDS011;69691;48.172;17.070;2023-06-14T13:07:09;5.47;;;4.45;;
14876;SDS011;69691;48.172;17.070;2023-06-14T13:09:40;9.32;;;4.65;;
14876;SDS011;69691;48.172;17.070;2023-06-14T13:12:07;5.50;;;4.55;;
14876;SDS011;69691;48.172;17.070;2023-06-14T13:14:38;11.35;;;5.00;;
14876;SDS011;69691;48.172;17.070;2023-06-14T13:17:05;6.38;;;5.03;;
14876;SDS011;69691;48.172;17.070;2023-06-14T13:19:33;7.43;;;4.82;;
14876;SDS011;69691;48.172;17.070;2023-06-14T13:22:00;6.63;;;4.43;;
14876;SDS011;69691;48.172;17.070;2023-06-14T13:24:26;6.53;;;4.22;;
14876;SDS011;69691;48.172;17.070;2023-06-14T13:26:51;6.15;;;5.07;;
14876;SDS011;69691;48.172;17.070;2023-06-14T13:29:17;5.43;;;4.72;;
14876;SDS011;69691;48.172;17.070;2023-06-14T13:31:43;5.65;;;5.15;;
14876;SDS011;69691;48.172;17.070;2023-06-14T13:34:10;8.13;;;4.40;;
14876;SDS011;69691;48.172;17.070;2023-06-14T13:36:36;9.10;;;4.80;;
14876;SDS011;69691;48.172;17.070;2023-06-14T13:39:02;10.05;;;5.55;;
14876;SDS011;69691;48.172;17.070;2023-06-14T13:41:28;9.43;;;4.78;;
14876;SDS011;69691;48.172;17.070;2023-06-14T13:43:59;8.07;;;5.40;;
14876;SDS011;69691;48.172;17.070;2023-06-14T13:46:25;5.20;;;4.70;;
14876;SDS011;69691;48.172;17.070;2023-06-14T13:48:51;7.68;;;4.97;;
14876;SDS011;69691;48.172;17.070;2023-06-14T13:51:17;13.85;;;5.20;;
14876;SDS011;69691;48.172;17.070;2023-06-14T13:53:50;10.00;;;5.00;;
14876;SDS011;69691;48.172;17.070;2023-06-14T13:56:16;6.20;;;4.90;;
14876;SDS011;69691;48.172;17.070;2023-06-14T13:58:44;6.00;;;5.00;;
14876;SDS011;69691;48.172;17.070;2023-06-14T14:01:10;8.45;;;5.10;;
14876;SDS011;69691;48.172;17.070;2023-06-14T14:03:37;7.03;;;5.68;;
14876;SDS011;69691;48.172;17.070;2023-06-14T14:06:03;9.50;;;4.68;;
14876;SDS011;69691;48.172;17.070;2023-06-14T14:08:29;7.35;;;4.75;;
14876;SDS011;69691;48.172;17.070;2023-06-14T14:10:55;4.88;;;4.28;;
14876;SDS011;69691;48.172;17.070;2023-06-14T14:13:21;7.15;;;5.07;;
14876;SDS011;69691;48.172;17.070;2023-06-14T14:15:47;8.45;;;5.40;;
14876;SDS011;69691;48.172;17.070;2023-06-14T14:18:16;7.95;;;4.93;;
14876;SDS011;69691;48.172;17.070;2023-06-14T14:20:42;4.90;;;4.50;;
14876;SDS011;69691;48.172;17.070;2023-06-14T14:23:08;6.72;;;4.75;;
14876;SDS011;69691;48.172;17.070;2023-06-14T14:25:34;5.78;;;4.65;;
14876;SDS011;69691;48.172;17.070;2023-06-14T14:28:00;6.68;;;4.70;;
14876;SDS011;69691;48.172;17.070;2023-06-14T14:30:26;6.90;;;5.00;;
14876;SDS011;69691;48.172;17.070;2023-06-14T14:32:53;6.65;;;4.65;;
14876;SDS011;69691;48.172;17.070;2023-06-14T14:35:18;6.47;;;4.65;;
14876;SDS011;69691;48.172;17.070;2023-06-14T14:37:44;8.40;;;4.90;;
14876;SDS011;69691;48.172;17.070;2023-06-14T14:40:11;7.78;;;5.18;;
14876;SDS011;69691;48.172;17.070;2023-06-14T14:42:37;8.55;;;4.68;;
14876;SDS011;69691;48.172;17.070;2023-06-14T14:45:03;7.78;;;4.57;;
14876;SDS011;69691;48.172;17.070;2023-06-14T14:47:30;12.38;;;10.13;;
14876;SDS011;69691;48.172;17.070;2023-06-14T14:49:55;7.50;;;4.75;;
14876;SDS011;69691;48.172;17.070;2023-06-14T14:52:21;5.72;;;4.88;;